Time;durP1;ratioP1;P1;durP2;ratioP2;P2;SDS_P1;SDS_P2;PMS_P1;PMS_P2;Temp;Humidity;BMP_temperature;BMP_pressure;BME280_temperature;BME280_humidity;BME280_pressure;Samples;Min_cycle;Max_cycle;Signal;HPM_P1;HPM_P2
2022/05/08 00:00:22;;;;;;;9.40;4.80;;;;;;;9.77;61.45;102263.84;5080423;28;20180;-74
2022/05/08 00:02:49;;;;;;;11.20;5.50;;;;;;;9.76;61.89;102261.19;5080329;28;20157;-72
2022/05/08 00:05:14;;;;;;;24.50;6.00;;;;;;;9.95;61.41;102260.16;5081866;28;20817;-77
2022/05/08 00:07:40;;;;;;;10.40;5.40;;;;;;;9.97;61.03;102265.41;5079992;28;20410;-72
2022/05/08 00:10:06;;;;;;;18.23;4.63;;;;;;;10.02;60.63;102267.34;5080279;28;20404;-73
2022/05/08 00:12:31;;;;;;;12.63;5.07;;;;;;;9.87;60.45;102270.28;5081241;28;20176;-71
2022/05/08 00:14:56;;;;;;;9.83;5.20;;;;;;;9.54;62.05;102259.47;5080908;28;20429;-71
2022/05/08 00:17:22;;;;;;;8.17;4.17;;;;;;;9.90;61.26;102266.91;5079971;28;20204;-71
2022/05/08 00:19:47;;;;;;;11.80;4.53;;;;;;;9.61;61.84;102266.72;5080709;28;20185;-73
2022/05/08 00:22:13;;;;;;;10.43;4.20;;;;;;;9.61;62.15;102262.38;5079814;28;20173;-70
2022/05/08 00:24:39;;;;;;;10.93;5.30;;;;;;;9.58;61.90;102262.28;5079940;28;20183;-75
2022/05/08 00:27:05;;;;;;;14.37;5.33;;;;;;;9.59;61.90;102269.28;5079596;28;20669;-70
2022/05/08 00:29:30;;;;;;;20.43;5.20;;;;;;;9.47;62.06;102263.59;5079631;28;20176;-71
2022/05/08 00:31:56;;;;;;;7.70;4.37;;;;;;;9.47;61.90;102257.47;5079735;28;20629;-70
2022/05/08 00:34:24;;;;;;;10.27;4.60;;;;;;;9.57;62.63;102264.81;5080202;28;20560;-71
2022/05/08 00:36:49;;;;;;;16.13;5.30;;;;;;;9.35;62.46;102266.59;5079472;28;20180;-73
2022/05/08 00:39:18;;;;;;;10.07;4.70;;;;;;;9.33;62.97;102260.44;5079288;28;20427;-73
2022/05/08 00:41:46;;;;;;;13.83;5.13;;;;;;;9.33;62.48;102260.44;5078939;28;20161;-73
2022/05/08 00:44:13;;;;;;;14.97;4.87;;;;;;;9.30;62.26;102259.44;5079116;28;20419;-72
2022/05/08 00:46:38;;;;;;;14.20;4.70;;;;;;;9.43;62.81;102261.66;5078880;28;20470;-75
2022/05/08 00:49:03;;;;;;;14.60;5.10;;;;;;;9.41;62.58;102264.22;5079577;28;20545;-75
2022/05/08 00:51:29;;;;;;;10.53;5.07;;;;;;;9.13;63.15;102258.75;5078265;28;20308;-74
2022/05/08 00:53:56;;;;;;;10.77;5.37;;;;;;;9.12;63.24;102264.78;5061700;28;20211;-73
2022/05/08 00:56:22;;;;;;;9.33;5.10;;;;;;;9.29;62.71;102258.53;5080139;28;20165;-72
2022/05/08 00:58:50;;;;;;;12.80;5.60;;;;;;;9.49;62.21;102255.84;5078993;28;20420;-74
2022/05/08 01:01:16;;;;;;;14.07;5.23;;;;;;;9.39;62.54;102260.69;5078893;28;20165;-72
2022/05/08 01:03:41;;;;;;;9.87;4.33;;;;;;;9.47;62.05;102258.38;5078962;28;20477;-73
2022/05/08 01:06:09;;;;;;;9.20;4.63;;;;;;;9.27;63.23;102255.88;5078622;28;20173;-73
2022/05/08 01:08:37;;;;;;;10.73;6.00;;;;;;;9.31;63.38;102262.09;5078027;28;20524;-72
2022/05/08 01:11:03;;;;;;;9.20;5.30;;;;;;;9.36;63.30;102260.56;5079101;28;20475;-71
2022/05/08 01:13:28;;;;;;;19.17;5.20;;;;;;;9.24;63.58;102262.66;5077561;28;20451;-71
2022/05/08 01:15:55;;;;;;;14.80;5.97;;;;;;;9.27;63.42;102260.19;5078745;28;20462;-73
2022/05/08 01:18:21;;;;;;;10.93;6.40;;;;;;;9.47;62.62;102262.69;5061558;28;20173;-72
2022/05/08 01:20:47;;;;;;;17.97;5.93;;;;;;;9.19;63.75;102264.22;5078322;28;20461;-73
2022/05/08 01:23:13;;;;;;;14.00;4.63;;;;;;;9.17;63.12;102266.72;5078113;28;20411;-71
2022/05/08 01:25:53;;;;;;;14.47;5.60;;;;;;;9.33;63.57;102267.34;5078655;28;20180;-72
2022/05/08 01:28:18;;;;;;;11.90;4.93;;;;;;;9.23;63.01;102258.31;5078300;28;20513;-71
2022/05/08 01:30:46;;;;;;;11.83;5.10;;;;;;;9.08;63.56;102266.41;5078134;28;20546;-71
2022/05/08 01:33:12;;;;;;;13.03;4.87;;;;;;;8.99;63.46;102268.63;5078099;28;20681;-72
2022/05/08 01:35:38;;;;;;;8.60;5.33;;;;;;;9.10;63.34;102268.19;5078017;28;20415;-71
2022/05/08 01:38:05;;;;;;;14.60;5.70;;;;;;;9.06;63.38;102268.03;5078578;28;20219;-71
2022/05/08 01:40:30;;;;;;;11.10;5.27;;;;;;;9.07;63.70;102267.22;5078170;28;20415;-73
2022/05/08 01:42:56;;;;;;;12.60;5.80;;;;;;;9.02;63.51;102266.13;5077967;28;20407;-74
2022/05/08 01:45:21;;;;;;;14.63;5.43;;;;;;;9.02;63.51;102271.34;5078668;28;20169;-74
2022/05/08 01:50:30;;;;;;;12.67;5.40;;;;;;;8.93;64.01;102269.25;5078417;28;20215;-74
2022/05/08 01:52:55;;;;;;;11.43;5.50;;;;;;;8.93;63.73;102269.25;5078099;28;20439;-74
2022/05/08 01:55:21;;;;;;;16.20;6.07;;;;;;;8.88;63.90;102271.66;5078136;28;20164;-70
2022/05/08 01:57:46;;;;;;;9.07;4.90;;;;;;;8.74;64.32;102273.69;5078650;28;20173;-71
2022/05/08 02:00:12;;;;;;;14.63;5.40;;;;;;;8.62;64.95;102272.25;5077975;28;20172;-71
2022/05/08 02:02:37;;;;;;;12.70;5.70;;;;;;;8.63;64.74;102269.72;5078296;28;20169;-71
2022/05/08 02:05:03;;;;;;;13.63;5.63;;;;;;;8.62;64.88;102278.38;5061090;28;20259;-70
2022/05/08 02:07:29;;;;;;;10.27;5.63;;;;;;;8.54;65.18;102278.03;5077644;28;20184;-71
2022/05/08 02:09:55;;;;;;;10.40;5.63;;;;;;;8.62;64.64;102283.56;5077948;28;20407;-71
2022/05/08 02:12:21;;;;;;;14.83;5.90;;;;;;;8.47;65.52;102275.09;5078132;28;20181;-71
2022/05/08 02:14:46;;;;;;;15.40;5.33;;;;;;;8.61;64.89;102284.38;5077578;28;20434;-71
2022/05/08 02:17:12;;;;;;;12.10;5.17;;;;;;;8.71;65.16;102283.06;5077825;28;20172;-70
2022/05/08 02:19:37;;;;;;;15.40;5.23;;;;;;;8.51;65.60;102283.13;5078024;28;20227;-69
2022/05/08 02:22:02;;;;;;;11.43;4.90;;;;;;;8.54;65.55;102284.97;5077552;28;20444;-69
2022/05/08 02:24:28;;;;;;;12.57;5.63;;;;;;;8.67;64.76;102276.84;5077671;28;20244;-69
2022/05/08 02:26:53;;;;;;;10.37;5.47;;;;;;;8.49;65.41;102276.94;5078223;28;20183;-70
2022/05/08 02:29:18;;;;;;;11.13;6.03;;;;;;;8.70;64.74;102276.97;5077655;28;20200;-70
2022/05/08 02:31:44;;;;;;;20.33;6.40;;;;;;;8.61;64.93;102284.38;5077573;28;20201;-71
2022/05/08 02:34:09;;;;;;;12.30;6.03;;;;;;;8.46;65.20;102287.22;5077883;28;20188;-71
2022/05/08 02:36:35;;;;;;;16.30;6.40;;;;;;;8.55;65.13;102281.50;5077306;28;20460;-71
2022/05/08 02:39:00;;;;;;;11.10;5.23;;;;;;;8.46;66.02;102281.13;5077134;28;20517;-72
2022/05/08 02:41:25;;;;;;;14.07;5.90;;;;;;;8.39;65.85;102285.16;5076875;28;20176;-71
2022/05/08 02:43:51;;;;;;;19.97;6.20;;;;;;;8.49;65.59;102281.28;5077484;28;20183;-71
2022/05/08 02:46:16;;;;;;;14.23;6.70;;;;;;;8.77;65.27;102278.13;5077292;28;20512;-71
2022/05/08 02:48:41;;;;;;;19.10;6.63;;;;;;;8.64;65.13;102281.91;5077603;28;20177;-71
2022/05/08 02:51:07;;;;;;;13.47;6.17;;;;;;;8.49;65.51;102278.66;5077119;28;20212;-72
2022/05/08 02:53:33;;;;;;;12.03;6.27;;;;;;;8.59;65.93;102273.03;5077174;28;20193;-71
2022/05/08 02:58:42;;;;;;;11.80;5.77;;;;;;;8.62;65.37;102278.38;5077439;28;20223;-71
2022/05/08 03:01:07;;;;;;;13.77;6.17;;;;;;;8.50;65.63;102273.53;5077535;28;20422;-70
2022/05/08 03:03:34;;;;;;;10.57;6.00;;;;;;;8.56;65.88;102278.09;5077376;28;20173;-72
2022/05/08 03:05:59;;;;;;;8.87;5.77;;;;;;;8.28;66.26;102276.88;5079993;28;20259;-72
2022/05/08 03:08:25;;;;;;;16.07;6.37;;;;;;;8.40;66.31;102282.63;5081606;28;20407;-72
2022/05/08 03:13:38;;;;;;;20.50;6.30;;;;;;;8.20;66.67;102275.63;5080927;28;20226;-71
2022/05/08 03:16:05;;;;;;;12.53;6.00;;;;;;;8.31;66.47;102282.22;5080767;28;20415;-71
2022/05/08 03:18:31;;;;;;;24.17;6.73;;;;;;;8.30;66.56;102275.22;5080629;28;20411;-71
2022/05/08 03:20:56;;;;;;;11.53;4.97;;;;;;;8.43;66.49;102277.53;5081393;28;20422;-72
2022/05/08 03:23:22;;;;;;;12.13;5.77;;;;;;;8.27;66.31;102288.09;5080510;28;20226;-72
2022/05/08 03:25:47;;;;;;;17.30;5.67;;;;;;;8.12;67.06;102287.41;5080575;28;20481;-72
2022/05/08 03:28:15;;;;;;;18.77;6.77;;;;;;;8.22;66.74;102287.00;5081121;28;20513;-72
2022/05/08 03:30:41;;;;;;;10.97;5.50;;;;;;;8.43;66.55;102285.34;5080589;28;20221;-74
2022/05/08 03:33:08;;;;;;;11.83;6.50;;;;;;;8.22;66.59;102285.28;5080427;28;20446;-71
2022/05/08 03:35:34;;;;;;;10.63;5.50;;;;;;;8.09;67.31;102283.88;5081048;28;20514;-72
2022/05/08 03:37:59;;;;;;;13.63;6.20;;;;;;;7.97;67.90;102287.59;5080478;28;20419;-72
2022/05/08 03:40:27;;;;;;;12.17;5.93;;;;;;;8.08;67.30;102286.41;5080427;28;20325;-71
2022/05/08 03:42:53;;;;;;;10.00;5.60;;;;;;;7.98;67.79;102292.84;5080651;28;20166;-70
2022/05/08 03:45:19;;;;;;;10.57;5.70;;;;;;;8.32;67.62;102299.59;5080299;28;20419;-70
2022/05/08 03:47:44;;;;;;;10.60;5.80;;;;;;;8.34;67.40;102290.13;5080146;28;20475;-72
2022/05/08 03:50:09;;;;;;;16.87;6.27;;;;;;;8.34;67.27;102292.72;5080897;28;20532;-71
2022/05/08 03:52:35;;;;;;;14.80;5.80;;;;;;;8.36;67.12;102291.09;5079234;28;20200;-72
2022/05/08 03:55:01;;;;;;;10.43;5.23;;;;;;;8.11;67.40;102290.84;5080252;28;20466;-71
2022/05/08 03:57:26;;;;;;;11.73;6.13;;;;;;;8.26;67.62;102292.38;5080601;28;20188;-71
2022/05/08 03:59:52;;;;;;;14.13;6.07;;;;;;;8.40;67.08;102289.50;5080834;28;20688;-71
2022/05/08 04:02:17;;;;;;;19.27;6.03;;;;;;;8.50;66.91;102298.66;5080371;28;20539;-71
2022/05/08 04:04:42;;;;;;;6.83;5.10;;;;;;;8.81;66.17;102292.13;5080536;28;20168;-70
2022/05/08 04:07:07;;;;;;;9.43;5.20;;;;;;;8.94;65.88;102291.81;5077739;28;20189;-70
2022/05/08 04:09:33;;;;;;;14.63;6.03;;;;;;;8.95;65.27;102304.00;5075950;28;20180;-69
2022/05/08 04:11:58;;;;;;;9.50;5.43;;;;;;;8.98;65.13;102296.31;5075246;28;20254;-71
2022/05/08 04:14:23;;;;;;;9.83;5.23;;;;;;;9.46;64.26;102295.66;5078011;28;20181;-69
2022/05/08 04:16:49;;;;;;;14.90;5.70;;;;;;;10.31;61.09;102298.81;5058711;28;20182;-71
2022/05/08 04:19:15;;;;;;;9.60;5.10;;;;;;;10.70;58.89;102288.03;5059451;28;20438;-70
2022/05/08 04:21:41;;;;;;;10.13;4.97;;;;;;;11.00;57.97;102284.69;5059757;28;20451;-70
2022/05/08 04:24:18;;;;;;;10.13;5.10;;;;;;;11.95;55.66;102281.50;5059704;28;20456;-71
2022/05/08 04:26:46;;;;;;;8.57;4.90;;;;;;;11.72;55.58;102280.81;5062814;28;20513;-71
2022/05/08 04:29:12;;;;;;;12.27;4.90;;;;;;;11.31;55.62;102288.25;5076141;28;20844;-71
2022/05/08 04:31:37;;;;;;;7.67;5.53;;;;;;;12.46;53.89;102277.69;5061584;28;20545;-71
2022/05/08 04:34:03;;;;;;;6.70;4.30;;;;;;;12.01;54.39;102280.78;5062889;28;20205;-72
2022/05/08 04:36:29;;;;;;;11.20;4.60;;;;;;;12.32;52.92;102281.66;5072524;28;20188;-70
2022/05/08 04:38:54;;;;;;;8.03;4.53;;;;;;;13.00;51.33;102278.16;5078916;28;20499;-71
2022/05/08 04:41:19;;;;;;;7.43;4.90;;;;;;;12.94;51.39;102286.75;5079161;28;20433;-72
2022/05/08 04:43:44;;;;;;;13.10;4.40;;;;;;;13.12;50.83;102290.66;5078531;28;20184;-72
2022/05/08 04:46:13;;;;;;;11.03;4.90;;;;;;;13.18;50.23;102289.91;5079192;28;20271;-73
2022/05/08 04:48:41;;;;;;;10.60;4.53;;;;;;;13.05;50.44;102294.88;5078627;28;20268;-72
2022/05/08 04:51:07;;;;;;;6.70;4.53;;;;;;;14.99;46.47;102289.22;5079182;28;20463;-72
2022/05/08 04:53:33;;;;;;;10.30;4.20;;;;;;;14.41;47.17;102297.81;5078612;28;20451;-72
2022/05/08 04:55:59;;;;;;;13.60;5.03;;;;;;;14.86;46.75;102292.53;5078955;28;20415;-72
2022/05/08 04:58:29;;;;;;;8.17;4.20;;;;;;;14.46;46.86;102297.91;5076182;28;20184;-73
2022/05/08 05:00:56;;;;;;;8.77;4.07;;;;;;;15.70;44.52;102290.25;5076508;28;20208;-74
2022/05/08 05:03:21;;;;;;;9.40;5.50;;;;;;;15.25;45.15;102304.50;5078197;28;20443;-72
2022/05/08 05:05:46;;;;;;;10.80;4.60;;;;;;;15.80;43.83;102288.66;5079039;28;20390;-72
2022/05/08 05:08:12;;;;;;;9.53;3.83;;;;;;;14.70;45.79;102300.13;5077892;28;20172;-74
2022/05/08 05:10:37;;;;;;;8.40;4.10;;;;;;;15.82;43.54;102303.59;5078609;28;20200;-73
2022/05/08 05:13:02;;;;;;;6.33;4.00;;;;;;;15.09;44.48;102299.00;5078131;28;20193;-73
2022/05/08 05:15:29;;;;;;;8.70;4.43;;;;;;;15.56;43.92;102299.69;5078689;28;20275;-74
2022/05/08 05:17:54;;;;;;;7.80;3.87;;;;;;;15.68;43.37;102299.84;5078543;28;20176;-73
2022/05/08 05:20:20;;;;;;;8.73;5.93;;;;;;;16.97;41.81;102297.81;5079125;28;20407;-72
2022/05/08 05:22:45;;;;;;;10.37;4.30;;;;;;;16.73;41.66;102295.81;5078254;28;20208;-73
2022/05/08 05:25:10;;;;;;;8.33;3.87;;;;;;;16.32;42.30;102299.81;5076775;28;20443;-74
2022/05/08 05:27:36;;;;;;;5.17;4.00;;;;;;;16.95;41.63;102293.41;5078495;28;20176;-73
2022/05/08 05:30:03;;;;;;;10.33;5.37;;;;;;;17.53;40.37;102300.81;5073953;28;20181;-72
2022/05/08 05:32:28;;;;;;;7.87;4.30;;;;;;;17.28;40.29;102305.06;5058188;28;20207;-73
2022/05/08 05:34:54;;;;;;;7.87;3.87;;;;;;;18.39;38.00;102305.59;5058627;28;20506;-74
2022/05/08 05:37:19;;;;;;;9.87;4.00;;;;;;;17.03;40.43;102314.53;5058104;28;20547;-72
2022/05/08 05:39:44;;;;;;;7.80;4.30;;;;;;;17.10;40.57;102321.63;5058116;28;20166;-72
2022/05/08 05:42:09;;;;;;;10.73;4.50;;;;;;;18.18;38.85;102315.22;5075013;28;20185;-71
2022/05/08 05:44:35;;;;;;;8.50;4.07;;;;;;;18.61;36.96;102313.56;5075916;28;20196;-72
2022/05/08 05:49:44;;;;;;;9.60;4.30;;;;;;;17.56;39.61;102323.69;5078187;28;20200;-73
2022/05/08 05:52:09;;;;;;;9.83;5.30;;;;;;;18.20;38.07;102323.16;5077924;28;20429;-73
2022/05/08 05:54:35;;;;;;;9.00;3.93;;;;;;;17.39;39.50;102324.47;5078731;28;20176;-71
2022/05/08 05:57:02;;;;;;;10.40;4.60;;;;;;;18.51;38.09;102331.16;5080677;28;20169;-72
2022/05/08 05:59:27;;;;;;;12.07;4.10;;;;;;;18.89;36.50;102337.38;5078055;28;20197;-71
2022/05/08 06:01:52;;;;;;;6.97;4.00;;;;;;;18.89;36.91;102332.09;5074567;28;20712;-72
2022/05/08 06:04:18;;;;;;;10.10;4.37;;;;;;;19.11;35.89;102336.50;5079305;28;20180;-72
2022/05/08 06:06:43;;;;;;;6.80;3.77;;;;;;;18.54;36.81;102339.06;5077539;28;20160;-72
2022/05/08 06:09:08;;;;;;;12.40;4.03;;;;;;;19.21;35.66;102328.56;5072429;28;20443;-73
2022/05/08 06:11:34;;;;;;;9.87;5.60;;;;;;;18.63;37.01;102339.09;5071055;28;20200;-73
2022/05/08 06:13:59;;;;;;;12.00;5.57;;;;;;;18.92;36.15;102337.41;5077764;28;20180;-69
2022/05/08 06:16:24;;;;;;;9.07;3.80;;;;;;;18.10;37.81;102347.75;5058259;28;20165;-74
2022/05/08 06:18:50;;;;;;;9.37;4.17;;;;;;;19.53;36.03;102334.69;5057877;28;20174;-72
2022/05/08 06:21:15;;;;;;;11.70;4.30;;;;;;;18.83;36.10;102339.13;5057625;28;20565;-71
2022/05/08 06:23:40;;;;;;;7.93;4.03;;;;;;;18.73;37.01;102333.84;5057744;28;20216;-70
2022/05/08 06:26:06;;;;;;;7.03;4.20;;;;;;;18.15;37.58;102338.09;5057678;28;20209;-71
2022/05/08 06:28:31;;;;;;;10.27;4.17;;;;;;;19.37;35.83;102337.38;5077042;28;20208;-71
2022/05/08 06:30:56;;;;;;;9.20;4.93;;;;;;;20.57;33.93;102344.00;5078147;28;20474;-71
2022/05/08 06:33:22;;;;;;;6.43;4.07;;;;;;;19.51;34.96;102333.81;5077456;28;20493;-77
2022/05/08 06:35:47;;;;;;;8.20;3.87;;;;;;;19.53;34.91;102332.03;5077461;28;20165;-76
2022/05/08 06:38:12;;;;;;;11.43;4.07;;;;;;;18.77;36.14;102347.03;5078010;28;20592;-72
2022/05/08 06:40:41;;;;;;;13.07;4.50;;;;;;;19.09;36.06;102340.94;5080428;28;20588;-74
2022/05/08 06:43:07;;;;;;;7.03;4.40;;;;;;;20.25;33.71;102332.69;5081618;28;20157;-73
2022/05/08 06:45:33;;;;;;;8.23;4.07;;;;;;;19.01;35.54;102345.31;5081815;28;20677;-67
2022/05/08 06:47:58;;;;;;;10.43;5.60;;;;;;;19.41;35.51;102347.94;5081409;28;20645;-71
2022/05/08 06:50:23;;;;;;;7.20;4.20;;;;;;;19.59;34.88;102346.13;5081219;28;20169;-71
2022/05/08 06:52:49;;;;;;;11.57;4.73;;;;;;;19.53;35.24;102358.50;5081498;28;20246;-71
2022/05/08 06:55:14;;;;;;;11.33;4.40;;;;;;;20.44;33.36;102352.00;5081254;28;20164;-71
2022/05/08 06:57:40;;;;;;;11.30;5.00;;;;;;;20.99;32.22;102357.84;5080048;28;20438;-71
2022/05/08 07:02:50;;;;;;;11.73;4.93;;;;;;;20.47;32.86;102359.94;5079324;28;20287;-72
2022/05/08 07:05:16;;;;;;;9.47;4.50;;;;;;;19.99;33.34;102364.59;5080854;28;20443;-70
2022/05/08 07:07:41;;;;;;;8.03;4.30;;;;;;;20.38;33.25;102357.34;5080897;28;20745;-71
2022/05/08 07:10:06;;;;;;;7.43;3.83;;;;;;;20.27;33.07;102352.09;5080858;28;20209;-72
2022/05/08 07:12:32;;;;;;;8.93;4.70;;;;;;;21.80;30.60;102358.88;5081204;28;20228;-71
2022/05/08 07:14:59;;;;;;;13.57;6.47;;;;;;;22.03;30.77;102355.06;5081018;28;20204;-70
2022/05/08 07:17:24;;;;;;;8.90;4.53;;;;;;;20.77;32.00;102358.03;5080914;28;20169;-73
2022/05/08 07:19:50;;;;;;;10.20;5.33;;;;;;;20.76;31.39;102361.56;5081289;28;20661;-71
2022/05/08 07:22:16;;;;;;;11.60;4.60;;;;;;;20.35;32.10;102357.38;5080754;28;20181;-72
2022/05/08 07:24:41;;;;;;;9.63;4.07;;;;;;;19.71;32.96;102361.97;5080874;28;20177;-71
2022/05/08 07:27:10;;;;;;;12.30;4.50;;;;;;;21.09;31.62;102358.66;5081076;28;20468;-71
2022/05/08 07:29:36;;;;;;;11.50;4.23;;;;;;;20.88;30.72;102357.03;5080898;28;20188;-71
2022/05/08 07:32:02;;;;;;;10.47;5.47;;;;;;;21.82;30.10;102359.72;5079956;28;20470;-71
2022/05/08 07:37:11;;;;;;;6.97;4.40;;;;;;;21.90;29.87;102356.97;5078260;28;20196;-73
2022/05/08 07:39:36;;;;;;;6.10;4.17;;;;;;;21.01;31.83;102361.34;5080643;28;20805;-74
2022/05/08 07:42:02;;;;;;;13.10;4.47;;;;;;;23.01;28.15;102366.03;5080324;28;20196;-69
2022/05/08 07:44:27;;;;;;;8.47;3.87;;;;;;;22.50;28.65;102361.53;5079656;28;20217;-70
2022/05/08 07:46:53;;;;;;;9.73;4.47;;;;;;;22.71;28.58;102355.00;5083904;28;20228;-70
2022/05/08 07:49:18;;;;;;;12.77;4.60;;;;;;;21.82;28.82;102367.66;5079096;28;20196;-70
2022/05/08 07:51:43;;;;;;;9.13;4.37;;;;;;;23.07;27.23;102356.22;5080055;28;20200;-73
2022/05/08 07:54:11;;;;;;;7.43;4.00;;;;;;;22.38;28.51;102361.72;5080318;28;20546;-71
2022/05/08 07:56:37;;;;;;;8.50;4.30;;;;;;;22.30;28.37;102367.09;5063495;28;20238;-70
2022/05/08 07:59:02;;;;;;;7.60;3.80;;;;;;;21.62;29.09;102373.22;5073522;28;20455;-70
2022/05/08 08:01:28;;;;;;;10.97;4.37;;;;;;;22.00;28.53;102371.91;5073202;28;20177;-72
2022/05/08 08:03:53;;;;;;;10.77;5.17;;;;;;;21.43;30.19;102369.81;5069334;28;20265;-71
2022/05/08 08:06:19;;;;;;;6.63;4.30;;;;;;;21.56;30.02;102375.06;5065334;28;20498;-71
2022/05/08 08:08:44;;;;;;;8.27;4.53;;;;;;;23.85;26.66;102361.91;5079316;28;20176;-72
2022/05/08 08:11:11;;;;;;;11.50;4.37;;;;;;;23.29;27.07;102370.06;5079793;28;20473;-73
2022/05/08 08:13:36;;;;;;;11.93;4.43;;;;;;;21.56;28.94;102378.59;5073746;28;20174;-71
2022/05/08 08:16:02;;;;;;;10.10;4.60;;;;;;;22.34;28.42;102375.91;5078106;28;20438;-72
2022/05/08 08:18:28;;;;;;;8.53;4.30;;;;;;;21.12;29.64;102383.38;5065783;28;20258;-71
2022/05/08 08:20:53;;;;;;;9.53;4.23;;;;;;;24.03;26.46;102371.31;5063008;28;20419;-72
2022/05/08 08:23:19;;;;;;;9.90;4.90;;;;;;;21.00;29.70;102387.00;5077976;28;20180;-72
2022/05/08 08:25:44;;;;;;;7.30;4.20;;;;;;;20.47;30.77;102385.53;5079679;28;20451;-71
2022/05/08 08:28:12;;;;;;;9.80;4.50;;;;;;;21.42;29.58;102385.75;5077946;28;20160;-69
2022/05/08 08:30:38;;;;;;;11.80;5.00;;;;;;;20.95;29.49;102385.28;5054873;28;20205;-70
2022/05/08 08:33:03;;;;;;;10.20;5.10;;;;;;;21.20;29.85;102381.53;5076275;28;20431;-72
2022/05/08 08:35:29;;;;;;;7.83;4.40;;;;;;;22.03;28.39;102384.28;5079176;28;20404;-72
2022/05/08 08:37:54;;;;;;;9.73;4.33;;;;;;;24.20;25.51;102368.31;5078969;28;20483;-70
2022/05/08 08:40:20;;;;;;;7.90;4.87;;;;;;;22.64;27.16;102379.94;5072267;28;20185;-71
2022/05/08 08:42:46;;;;;;;8.43;4.23;;;;;;;21.62;28.64;102373.22;5078848;28;20226;-71
2022/05/08 08:47:57;;;;;;;7.80;4.53;;;;;;;22.09;28.03;102384.19;5075394;28;20273;-71
2022/05/08 08:50:24;;;;;;;7.70;4.20;;;;;;;22.09;28.06;102392.16;5071054;28;20443;-74
2022/05/08 08:52:50;;;;;;;7.50;4.70;;;;;;;22.31;27.45;102386.56;5078508;28;20498;-72
2022/05/08 08:55:19;;;;;;;9.20;4.33;;;;;;;22.76;27.81;102377.97;5077785;28;20585;-74
2022/05/08 08:57:44;;;;;;;6.87;4.30;;;;;;;23.17;26.54;102381.81;5077559;28;20184;-72
2022/05/08 09:00:10;;;;;;;7.73;4.30;;;;;;;22.92;27.13;102381.28;5071927;28;20439;-71
2022/05/08 09:02:37;;;;;;;6.07;4.30;;;;;;;23.95;25.44;102375.94;5079930;28;20285;-71
2022/05/08 09:05:08;;;;;;;8.40;4.13;;;;;;;23.44;25.69;102377.78;5077395;28;20223;-70
2022/05/08 09:07:33;;;;;;;10.80;4.63;;;;;;;24.52;24.13;102378.25;5074720;28;20487;-71
2022/05/08 09:10:21;;;;;;;7.47;4.23;;;;;;;22.57;26.37;102374.72;5077532;28;20552;-69
2022/05/08 09:12:53;;;;;;;8.77;4.73;;;;;;;24.02;25.59;102381.13;5058396;28;20266;-69
2022/05/08 09:15:34;;;;;;;9.57;4.50;;;;;;;22.54;27.51;102389.81;5073773;28;20569;-69
2022/05/08 09:18:03;;;;;;;8.50;4.70;;;;;;;22.71;28.38;102392.22;5059520;28;20419;-69
2022/05/08 09:20:39;;;;;;;8.93;4.50;;;;;;;21.72;30.09;102399.66;5076683;28;20443;-70
2022/05/08 09:23:14;;;;;;;9.27;4.80;;;;;;;23.04;28.07;102389.06;5076780;28;20423;-70
2022/05/08 09:25:45;;;;;;;7.80;5.20;;;;;;;22.26;28.90;102399.91;5075073;28;20445;-72
2022/05/08 09:28:16;;;;;;;6.97;4.33;;;;;;;22.15;28.89;102396.50;5074357;28;20442;-71
2022/05/08 09:31:02;;;;;;;13.27;5.00;;;;;;;22.78;27.76;102393.00;5078198;28;20827;-73
2022/05/08 09:33:28;;;;;;;9.33;5.03;;;;;;;24.33;25.67;102390.25;5070334;28;20937;-71
2022/05/08 09:35:54;;;;;;;8.50;4.80;;;;;;;23.30;26.54;102390.44;5074354;28;20699;-71
2022/05/08 09:38:20;;;;;;;7.83;4.30;;;;;;;22.60;27.64;102393.31;5075067;28;20510;-70
2022/05/08 09:40:46;;;;;;;9.90;5.23;;;;;;;23.46;26.58;102383.06;5076725;28;20779;-71
2022/05/08 09:43:41;;;;;;;11.47;5.50;;;;;;;21.84;28.78;102389.78;5076600;28;20181;-71
2022/05/08 09:46:07;;;;;;;11.30;4.80;;;;;;;22.73;28.02;102394.00;5064432;28;20552;-71
2022/05/08 09:48:33;;;;;;;8.97;4.50;;;;;;;23.23;25.72;102388.78;5075170;28;20488;-71
2022/05/08 09:51:07;;;;;;;8.23;5.00;;;;;;;24.44;24.15;102388.22;5076509;28;20466;-74
2022/05/08 09:53:39;;;;;;;7.07;4.73;;;;;;;23.44;25.24;102388.41;5076619;28;20421;-73
2022/05/08 09:56:09;;;;;;;7.53;4.63;;;;;;;24.10;25.01;102382.72;5071770;28;20439;-73
2022/05/08 09:58:35;;;;;;;8.13;4.50;;;;;;;22.26;26.97;102399.03;5073743;28;20430;-71
2022/05/08 10:01:00;;;;;;;9.80;4.43;;;;;;;23.36;25.84;102391.22;5071548;28;20423;-71
2022/05/08 10:03:27;;;;;;;12.23;5.00;;;;;;;23.68;25.14;102387.09;5076818;28;20454;-70
2022/05/08 10:05:53;;;;;;;7.90;5.00;;;;;;;23.17;24.91;102380.00;5076843;28;20187;-70
2022/05/08 10:08:21;;;;;;;7.63;4.97;;;;;;;21.91;27.58;102384.41;5077042;28;20426;-70
2022/05/08 10:14:05;;;;;;;8.27;5.00;;;;;;;21.52;27.94;102385.66;5068529;28;20438;-71
2022/05/08 10:16:45;;;;;;;7.70;5.37;;;;;;;23.77;26.85;102378.03;5071978;28;20796;-75
2022/05/08 10:19:21;;;;;;;7.40;4.30;;;;;;;23.03;26.94;102379.34;5073072;28;20517;-71
2022/05/08 10:21:53;;;;;;;7.57;4.53;;;;;;;23.49;26.37;102380.34;5070714;28;20476;-71
2022/05/08 10:24:54;;;;;;;7.60;4.80;;;;;;;23.58;25.82;102380.16;5067752;28;20584;-72
2022/05/08 10:27:23;;;;;;;6.83;4.70;;;;;;;22.66;27.01;102387.88;5079597;28;20694;-73
2022/05/08 10:29:49;;;;;;;9.30;4.67;;;;;;;23.46;25.13;102383.97;5077127;28;20503;-71
2022/05/08 10:32:32;;;;;;;7.00;4.50;;;;;;;24.05;25.36;102380.19;5078646;28;20550;-70
2022/05/08 10:35:12;;;;;;;6.70;4.23;;;;;;;23.48;25.38;102382.13;5069028;28;20577;-71
2022/05/08 10:37:41;;;;;;;10.10;5.63;;;;;;;23.28;27.25;102386.94;5068871;28;20419;-70
2022/05/08 10:40:30;;;;;;;11.73;4.80;;;;;;;24.83;26.62;102380.25;5077722;28;20458;-69
2022/05/08 10:42:58;;;;;;;10.30;6.23;;;;;;;22.63;27.77;102379.97;5075041;28;20418;-70
2022/05/08 10:45:32;;;;;;;7.00;4.93;;;;;;;23.07;27.10;102386.38;5077611;28;20749;-71
2022/05/08 10:47:58;;;;;;;10.13;5.40;;;;;;;23.51;25.92;102378.53;5080321;28;20465;-71
2022/05/08 10:50:24;;;;;;;9.90;5.27;;;;;;;22.44;27.03;102382.88;5071635;28;20442;-71
2022/05/08 10:52:50;;;;;;;6.90;5.00;;;;;;;24.35;25.47;102377.75;5067525;28;20450;-71
2022/05/08 10:55:16;;;;;;;8.50;4.93;;;;;;;23.98;25.90;102381.22;5074272;28;20568;-70
2022/05/08 10:57:43;;;;;;;7.70;5.43;;;;;;;23.97;25.81;102375.00;5065993;28;20466;-70
2022/05/08 11:00:16;;;;;;;8.13;5.50;;;;;;;22.96;26.66;102383.00;5081003;28;20431;-70
2022/05/08 11:02:52;;;;;;;8.43;4.87;;;;;;;22.47;27.34;102388.13;5064903;28;20508;-71
2022/05/08 11:05:22;;;;;;;8.57;5.07;;;;;;;22.92;26.63;102383.94;5079223;28;20547;-71
2022/05/08 11:07:49;;;;;;;9.73;5.30;;;;;;;23.88;26.23;102377.81;5080529;28;20804;-71
2022/05/08 11:10:38;;;;;;;9.10;5.50;;;;;;;21.48;28.62;102388.38;5080049;28;20442;-73
2022/05/08 11:13:15;;;;;;;9.90;5.20;;;;;;;21.34;28.71;102386.72;5080985;28;20497;-72
2022/05/08 11:15:40;;;;;;;11.47;5.43;;;;;;;22.79;26.84;102376.16;5081031;28;20415;-74
2022/05/08 11:18:11;;;;;;;9.73;4.63;;;;;;;22.84;26.30;102384.94;5080394;28;20438;-72
2022/05/08 11:20:37;;;;;;;8.47;4.87;;;;;;;22.57;27.44;102380.03;5073493;28;20562;-73
2022/05/08 11:23:04;;;;;;;9.63;5.10;;;;;;;23.10;26.63;102370.34;5066847;28;20419;-73
2022/05/08 11:25:30;;;;;;;7.10;4.50;;;;;;;23.14;27.31;102374.75;5060196;28;20678;-74
2022/05/08 11:27:56;;;;;;;14.73;5.80;;;;;;;23.97;26.33;102363.47;5059782;28;20440;-72
2022/05/08 11:30:31;;;;;;;8.03;4.73;;;;;;;22.48;28.14;102368.63;5076441;28;20757;-71
2022/05/08 11:36:04;;;;;;;9.07;5.57;;;;;;;21.85;28.82;102361.44;5072239;28;20496;-72
2022/05/08 11:38:44;;;;;;;10.17;5.20;;;;;;;21.77;29.52;102379.25;5059709;28;20408;-72
2022/05/08 11:41:18;;;;;;;10.33;5.47;;;;;;;22.19;28.42;102377.88;5079483;28;20419;-74
2022/05/08 11:43:48;;;;;;;7.37;5.87;;;;;;;19.96;31.72;102372.53;5078247;28;20423;-71
2022/05/08 11:46:15;;;;;;;11.43;5.00;;;;;;;20.19;30.97;102375.09;5067352;28;20567;-72
2022/05/08 11:48:46;;;;;;;11.80;5.40;;;;;;;20.06;30.52;102368.09;5079609;28;20677;-74